Time;durP1;ratioP1;P1;durP2;ratioP2;P2;SDS_P1;SDS_P2;PMS_P1;PMS_P2;Temp;Humidity;BMP_temperature;BMP_pressure;BME280_temperature;BME280_humidity;BME280_pressure;Samples;Min_cycle;Max_cycle;Signal;HPM_P1;HPM_P2
2022/09/30 00:00:25;;;;;;;8.13;5.37;;;;;;;19.31;44.56;100866.56;5086978;28;20015;-76
2022/09/30 00:02:51;;;;;;;9.13;6.03;;;;;;;19.50;44.49;100872.72;5081352;28;20399;-75
2022/09/30 00:05:16;;;;;;;9.23;5.43;;;;;;;19.52;44.34;100871.81;5090995;28;20024;-75
2022/09/30 00:07:41;;;;;;;9.63;6.07;;;;;;;19.52;44.44;100866.50;5084407;28;20468;-75
2022/09/30 00:10:07;;;;;;;7.80;5.57;;;;;;;19.27;45.22;100873.78;5088194;28;20031;-75
2022/09/30 00:12:33;;;;;;;8.23;5.70;;;;;;;19.33;45.02;100870.03;5082702;28;20027;-75
2022/09/30 00:15:00;;;;;;;10.37;4.90;;;;;;;19.44;44.36;100865.06;5089211;28;20039;-75
2022/09/30 00:17:27;;;;;;;7.13;4.93;;;;;;;19.82;43.84;100867.75;5082498;28;20024;-75
2022/09/30 00:19:52;;;;;;;7.00;5.23;;;;;;;19.55;44.49;100871.66;5090090;28;20035;-76
2022/09/30 00:22:17;;;;;;;7.20;5.33;;;;;;;19.57;44.62;100878.59;5086137;28;20024;-76
2022/09/30 00:24:43;;;;;;;7.13;4.70;;;;;;;19.66;44.33;100879.97;5092279;28;20024;-74
2022/09/30 00:27:08;;;;;;;10.57;5.80;;;;;;;19.67;44.77;100881.66;5086309;28;20031;-76
2022/09/30 00:29:33;;;;;;;8.83;5.33;;;;;;;19.70;44.63;100880.66;5077158;28;20016;-75
2022/09/30 00:31:59;;;;;;;8.60;5.40;;;;;;;20.21;43.83;100887.09;5089665;28;20024;-75
2022/09/30 00:34:24;;;;;;;7.77;5.33;;;;;;;20.01;43.81;100885.41;5070766;28;20412;-75
2022/09/30 00:36:52;;;;;;;7.67;5.07;;;;;;;19.81;44.46;100881.91;5071265;28;20101;-76
2022/09/30 00:39:23;;;;;;;7.17;4.57;;;;;;;19.89;44.41;100884.19;5077552;28;20399;-75
2022/09/30 00:41:51;;;;;;;7.83;5.23;;;;;;;20.06;44.22;100874.56;5092002;28;20115;-76
2022/09/30 00:44:42;;;;;;;6.70;5.00;;;;;;;20.20;43.70;100873.91;5085333;28;20063;-76
2022/09/30 00:47:46;;;;;;;7.77;6.07;;;;;;;20.36;43.50;100874.84;5091851;28;20303;-75
2022/09/30 00:50:14;;;;;;;7.93;6.00;;;;;;;20.23;43.72;100876.38;5101511;28;20055;-76
2022/09/30 00:52:43;;;;;;;7.70;5.70;;;;;;;20.24;44.04;100870.16;5088941;28;20037;-75
2022/09/30 00:55:19;;;;;;;9.30;6.40;;;;;;;20.22;44.10;100872.84;5094660;28;20103;-74
2022/09/30 00:57:45;;;;;;;7.30;5.50;;;;;;;20.06;44.54;100872.78;5103526;28;20038;-75
2022/09/30 01:00:10;;;;;;;7.13;5.20;;;;;;;20.10;44.38;100863.72;5102208;28;20032;-75
2022/09/30 01:02:36;;;;;;;5.80;4.73;;;;;;;20.23;43.57;100868.44;5086832;28;20039;-75
2022/09/30 01:05:01;;;;;;;7.17;4.50;;;;;;;20.05;43.86;100871.06;5090342;28;20395;-75
2022/09/30 01:07:28;;;;;;;8.77;4.77;;;;;;;20.67;42.82;100875.91;5104530;28;20031;-75
2022/09/30 01:09:54;;;;;;;5.87;3.77;;;;;;;20.07;43.82;100874.50;5088717;28;20514;-76
2022/09/30 01:12:23;;;;;;;5.53;4.07;;;;;;;20.05;43.74;100871.06;5085573;28;20027;-75
2022/09/30 01:14:52;;;;;;;7.53;3.40;;;;;;;20.00;43.54;100867.75;5072574;28;20100;-76
2022/09/30 01:17:43;;;;;;;4.43;3.87;;;;;;;19.97;43.58;100870.56;5088517;28;20031;-75
2022/09/30 01:20:28;;;;;;;6.03;4.07;;;;;;;19.80;44.00;100882.84;5088688;28;20023;-75
2022/09/30 01:23:21;;;;;;;4.40;4.00;;;;;;;19.60;44.00;100870.50;5092043;28;20466;-75
2022/09/30 01:25:55;;;;;;;;;;;;;;;19.69;43.79;100874.53;5102918;27;20032;-76
2022/09/30 01:28:47;;;;;;;6.33;4.20;;;;;;;19.40;44.31;100884.69;5082839;28;19916;-75
2022/09/30 01:31:55;;;;;;;5.30;4.00;;;;;;;19.11;44.81;100883.34;5091993;28;20387;-75
2022/09/30 01:34:28;;;;;;;5.10;3.67;;;;;;;19.27;44.34;100878.22;5081192;28;20050;-75
2022/09/30 01:37:03;;;;;;;7.73;4.50;;;;;;;19.08;44.39;100879.09;5092537;28;20059;-75
2022/09/30 01:39:36;;;;;;;5.40;4.17;;;;;;;19.30;43.88;100883.38;5087643;28;20419;-75
2022/09/30 01:42:25;;;;;;;5.93;4.10;;;;;;;18.98;44.70;100885.72;5100230;27;20020;-75
2022/09/30 01:45:02;;;;;;;6.63;3.83;;;;;;;19.07;44.13;100889.72;5075355;28;20063;-76
2022/09/30 01:47:42;;;;;;;5.23;4.10;;;;;;;19.23;43.37;100887.25;5089141;28;20035;-75
2022/09/30 01:50:21;;;;;;;5.07;3.93;;;;;;;18.97;44.44;100883.97;5086688;28;20044;-75
2022/09/30 01:52:49;;;;;;;4.40;3.93;;;;;;;18.68;45.15;100891.38;5079461;28;20024;-75
2022/09/30 01:55:21;;;;;;;5.70;4.27;;;;;;;18.78;44.80;100890.06;5080658;28;20054;-75
2022/09/30 01:57:57;;;;;;;5.28;4.40;;;;;;;18.71;45.43;100885.97;5092158;27;20023;-75
2022/09/30 02:00:23;;;;;;;6.40;4.57;;;;;;;18.55;45.41;100895.50;5091907;28;20016;-75
2022/09/30 02:03:15;;;;;;;5.00;4.10;;;;;;;18.53;45.46;100881.44;5079422;28;20046;-76
2022/09/30 02:05:46;;;;;;;6.37;4.53;;;;;;;18.61;45.64;100874.88;5088805;28;20035;-75
2022/09/30 02:08:30;;;;;;;9.30;4.80;;;;;;;18.52;45.17;100874.44;5078910;28;20064;-75
2022/09/30 02:11:01;;;;;;;6.63;4.93;;;;;;;18.53;45.53;100876.16;5102455;28;20118;-75
2022/09/30 02:13:52;;;;;;;6.93;4.63;;;;;;;18.54;45.42;100867.31;5092812;28;20031;-75
2022/09/30 02:16:42;;;;;;;11.43;5.20;;;;;;;19.03;44.45;100869.59;5078361;28;20158;-76
2022/09/30 02:19:21;;;;;;;9.67;5.60;;;;;;;19.02;43.87;100873.19;5087423;28;20027;-75
2022/09/30 02:22:14;;;;;;;7.37;4.93;;;;;;;18.73;45.21;100873.50;5084928;28;20025;-76
2022/09/30 02:24:42;;;;;;;10.90;5.45;;;;;;;18.74;45.48;100869.06;5080416;28;20040;-76
2022/09/30 02:27:17;;;;;;;11.73;6.80;;;;;;;18.79;45.84;100872.38;5090834;28;20141;-76
2022/09/30 02:29:49;;;;;;;9.20;6.40;;;;;;;18.77;45.19;100879.53;5107621;28;20115;-75
2022/09/30 02:32:21;;;;;;;9.33;6.10;;;;;;;18.91;45.04;100882.47;5095790;27;20033;-75
2022/09/30 02:34:56;;;;;;;7.15;5.47;;;;;;;18.95;44.82;100883.19;5089365;28;20282;-76
2022/09/30 02:37:44;;;;;;;9.20;5.47;;;;;;;19.10;44.19;100885.16;5087464;28;20098;-75
2022/09/30 02:40:25;;;;;;;8.47;5.70;;;;;;;18.52;46.21;100895.59;5108121;28;20020;-75
2022/09/30 02:42:50;;;;;;;8.60;5.90;;;;;;;18.43;45.70;100897.72;5083076;28;20035;-75
2022/09/30 02:45:20;;;;;;;7.57;5.73;;;;;;;18.70;44.98;100894.84;5076587;28;20032;-75
2022/09/30 02:48:03;;;;;;;11.37;6.00;;;;;;;18.17;46.73;100895.28;5082818;28;20043;-76
2022/09/30 02:50:47;;;;;;;8.95;5.55;;;;;;;18.53;45.29;100894.69;5105749;27;20047;-75
2022/09/30 02:53:49;;;;;;;7.43;5.50;;;;;;;18.82;44.75;100891.66;5088209;28;20480;-75
2022/09/30 02:56:15;;;;;;;7.28;5.18;;;;;;;18.53;45.38;100881.44;5105390;27;20031;-75
2022/09/30 02:58:42;;;;;;;9.43;5.47;;;;;;;18.66;44.92;100882.66;5093333;27;20035;-75
2022/09/30 03:01:11;;;;;;;7.43;5.07;;;;;;;18.65;45.32;100880.94;5087511;28;20163;-75
2022/09/30 03:03:42;;;;;;;7.53;4.83;;;;;;;18.50;45.82;100884.22;5088123;28;20024;-76
2022/09/30 03:06:09;;;;;;;9.70;5.13;;;;;;;18.68;45.06;100886.06;5089137;28;20020;-75
2022/09/30 03:08:35;;;;;;;8.03;5.70;;;;;;;18.57;45.55;100888.34;5090042;28;20032;-75
2022/09/30 03:11:02;;;;;;;6.93;5.23;;;;;;;18.52;45.12;100898.25;5084611;28;20016;-75
2022/09/30 03:13:49;;;;;;;7.57;5.30;;;;;;;18.56;44.83;100894.53;5101297;27;20031;-75
2022/09/30 03:16:38;;;;;;;8.03;5.27;;;;;;;18.45;45.18;100893.22;5090317;28;20058;-75
2022/09/30 03:19:23;;;;;;;5.60;5.00;;;;;;;18.50;45.19;100893.03;5089494;28;20032;-75
2022/09/30 03:21:54;;;;;;;6.63;4.83;;;;;;;18.48;44.95;100890.44;5080553;28;20020;-75
2022/09/30 03:24:57;;;;;;;7.63;4.60;;;;;;;18.56;44.96;100891.91;5102678;28;20115;-75
2022/09/30 03:27:32;;;;;;;6.18;4.88;;;;;;;18.44;44.94;100896.78;5090656;27;20024;-75
2022/09/30 03:30:06;;;;;;;8.07;4.77;;;;;;;18.26;45.40;100900.22;5088106;27;20480;-75
2022/09/30 03:32:47;;;;;;;5.07;4.27;;;;;;;18.36;45.14;100896.25;5080860;28;20441;-77
2022/09/30 03:35:21;;;;;;;6.23;4.60;;;;;;;18.27;45.28;100901.91;5104530;27;20031;-77
2022/09/30 03:38:01;;;;;;;6.23;4.53;;;;;;;18.26;45.24;100905.50;5091166;28;20062;-75
2022/09/30 03:41:01;;;;;;;5.63;4.90;;;;;;;18.49;44.90;100912.47;5096973;27;20115;-75
2022/09/30 03:43:56;;;;;;;6.37;4.70;;;;;;;18.26;45.15;100916.09;5107311;27;20054;-77
2022/09/30 03:46:40;;;;;;;5.53;4.10;;;;;;;18.37;45.24;100929.72;5092772;27;20096;-75
2022/09/30 03:49:12;;;;;;;6.60;4.83;;;;;;;18.20;45.20;100938.34;5082896;28;20110;-75
2022/09/30 03:51:39;;;;;;;6.00;4.13;;;;;;;18.10;45.61;100932.56;5086494;28;20032;-75
2022/09/30 03:54:12;;;;;;;6.73;4.50;;;;;;;18.34;45.00;100932.50;5106269;28;20027;-75
2022/09/30 03:56:42;;;;;;;5.30;4.60;;;;;;;18.26;45.15;100931.97;5103525;28;20032;-75
2022/09/30 03:59:26;;;;;;;6.43;4.33;;;;;;;18.37;45.37;100935.03;5083606;28;20480;-77
2022/09/30 04:01:52;;;;;;;5.17;4.10;;;;;;;18.09;45.57;100936.16;5086315;28;20411;-75
2022/09/30 04:04:17;;;;;;;9.40;4.90;;;;;;;18.04;45.77;100937.22;5086352;28;20035;-75
2022/09/30 04:06:43;;;;;;;7.67;4.30;;;;;;;18.06;45.41;100928.31;5084828;28;20035;-75
2022/09/30 04:09:08;;;;;;;7.50;4.80;;;;;;;18.16;45.27;100935.88;5084658;28;20027;-75
2022/09/30 04:11:34;;;;;;;6.40;4.83;;;;;;;18.36;44.71;100925.34;5087208;28;20489;-74
2022/09/30 04:14:00;;;;;;;6.77;5.03;;;;;;;18.17;45.28;100932.31;5091878;28;20028;-74
2022/09/30 04:16:27;;;;;;;8.83;5.43;;;;;;;17.93;46.26;100937.69;5086972;28;20035;-75
2022/09/30 04:18:53;;;;;;;10.33;6.23;;;;;;;18.26;45.17;100929.31;5087387;28;20039;-77
2022/09/30 04:21:18;;;;;;;9.03;6.30;;;;;;;18.03;45.91;100933.72;5072040;28;20029;-77
2022/09/30 04:23:44;;;;;;;11.13;7.57;;;;;;;18.35;44.86;100939.50;5074929;28;20069;-75
2022/09/30 04:26:11;;;;;;;9.07;7.17;;;;;;;17.97;46.33;100941.94;5088902;28;20024;-75
2022/09/30 04:28:37;;;;;;;10.77;7.80;;;;;;;18.50;44.49;100939.81;5086577;28;20047;-75
2022/09/30 04:31:04;;;;;;;10.80;7.83;;;;;;;18.26;45.21;100953.13;5084294;28;20029;-75
2022/09/30 04:33:29;;;;;;;13.07;8.30;;;;;;;17.85;46.38;100958.22;5077050;28;20027;-75
2022/09/30 04:35:56;;;;;;;14.13;8.80;;;;;;;17.96;46.46;100966.63;5089718;28;20176;-74
2022/09/30 04:38:23;;;;;;;13.13;9.13;;;;;;;18.12;45.97;100957.19;5087335;28;20024;-75
2022/09/30 04:40:49;;;;;;;12.27;9.00;;;;;;;17.97;46.34;100952.50;5086433;28;20392;-75
2022/09/30 04:43:17;;;;;;;14.97;9.00;;;;;;;17.97;46.34;100956.00;5086121;28;20119;-75
2022/09/30 04:45:44;;;;;;;15.73;10.00;;;;;;;18.12;45.83;100953.66;5087335;28;20038;-75
2022/09/30 04:48:13;;;;;;;14.47;9.83;;;;;;;18.21;45.47;100957.72;5087422;28;20028;-76
2022/09/30 04:50:40;;;;;;;13.97;9.63;;;;;;;18.14;45.88;100960.59;5093572;28;20028;-75
2022/09/30 04:53:07;;;;;;;14.47;9.97;;;;;;;18.01;45.82;100964.69;5085288;28;20487;-77
2022/09/30 04:55:32;;;;;;;14.37;10.37;;;;;;;18.02;45.68;100962.88;5106853;27;20764;-75
2022/09/30 04:57:57;;;;;;;16.97;10.70;;;;;;;18.17;45.68;100956.13;5086879;28;20032;-75
2022/09/30 05:00:24;;;;;;;14.83;10.03;;;;;;;18.32;44.94;100958.16;5089490;28;20043;-75
2022/09/30 05:02:49;;;;;;;17.67;10.93;;;;;;;18.00;45.91;100962.94;5091892;28;20167;-77
2022/09/30 05:05:15;;;;;;;16.70;10.47;;;;;;;18.31;44.86;100964.38;5093524;28;20058;-75
2022/09/30 05:07:40;;;;;;;20.13;11.20;;;;;;;18.29;44.71;100969.72;5094776;28;20395;-74
2022/09/30 05:10:07;;;;;;;15.83;10.97;;;;;;;17.63;46.51;100977.53;5085080;28;20150;-74
2022/09/30 05:12:33;;;;;;;14.87;9.80;;;;;;;17.76;46.28;100991.16;5089227;28;20123;-75
2022/09/30 05:14:58;;;;;;;15.03;10.33;;;;;;;18.25;44.97;100978.69;5092361;28;20848;-75
2022/09/30 05:17:24;;;;;;;12.33;9.30;;;;;;;18.24;45.05;100986.72;5089667;28;20027;-75
2022/09/30 05:19:49;;;;;;;13.70;9.47;;;;;;;18.21;45.24;100984.19;5092086;28;20035;-75
2022/09/30 05:22:15;;;;;;;12.60;9.33;;;;;;;17.92;45.76;100996.75;5087836;28;20028;-75
2022/09/30 05:24:40;;;;;;;12.67;9.17;;;;;;;17.87;46.04;100990.75;5081046;28;20053;-75
2022/09/30 05:27:06;;;;;;;10.73;8.47;;;;;;;17.78;46.16;100984.88;5092670;28;20077;-75
2022/09/30 05:29:31;;;;;;;11.70;9.00;;;;;;;17.93;45.59;100982.63;5084571;28;20118;-76
2022/09/30 05:31:57;;;;;;;14.90;9.13;;;;;;;17.64;46.65;100981.91;5096897;27;20028;-76
2022/09/30 05:34:22;;;;;;;13.87;9.37;;;;;;;17.71;46.24;100985.16;5085188;28;20082;-75
2022/09/30 05:36:48;;;;;;;10.37;8.10;;;;;;;17.39;46.98;100988.09;5090976;28;20038;-75
2022/09/30 05:39:13;;;;;;;15.57;8.73;;;;;;;17.89;45.50;100992.41;5081913;28;20091;-75
2022/09/30 05:41:38;;;;;;;13.90;7.90;;;;;;;17.87;45.48;100993.38;5091180;28;20027;-75
2022/09/30 05:44:05;;;;;;;11.87;8.43;;;;;;;17.98;45.83;100993.88;5089910;28;20024;-75
2022/09/30 05:46:30;;;;;;;11.27;8.10;;;;;;;17.36;47.29;100988.19;5094051;28;20406;-76
2022/09/30 05:48:56;;;;;;;13.87;7.63;;;;;;;17.60;46.49;100985.59;5093298;28;20063;-76
2022/09/30 05:51:21;;;;;;;11.57;8.00;;;;;;;17.86;46.01;100979.31;5093521;28;20043;-75
2022/09/30 05:53:47;;;;;;;13.33;8.73;;;;;;;17.62;46.67;100987.22;5103038;28;20400;-75
2022/09/30 05:56:13;;;;;;;13.30;9.17;;;;;;;17.78;46.09;100984.88;5086601;28;20032;-76
2022/09/30 05:58:40;;;;;;;17.63;9.47;;;;;;;17.55;47.14;100987.53;5090414;28;20042;-75
2022/09/30 06:01:11;;;;;;;15.27;10.20;;;;;;;17.51;47.18;100988.56;5078849;28;20024;-75
2022/09/30 06:03:37;;;;;;;17.00;11.27;;;;;;;17.23;48.42;100987.78;5078064;28;20038;-75
2022/09/30 06:06:03;;;;;;;17.63;10.60;;;;;;;17.29;48.04;100991.97;5088410;28;20032;-75
2022/09/30 06:08:29;;;;;;;15.60;10.00;;;;;;;17.40;47.64;100994.22;5089314;28;20449;-75
2022/09/30 06:10:58;;;;;;;18.57;10.87;;;;;;;17.87;46.16;101001.31;5078981;28;20071;-75
2022/09/30 06:13:24;;;;;;;13.17;10.27;;;;;;;18.08;45.50;100995.25;5089479;28;20032;-75
2022/09/30 06:16:00;;;;;;;15.23;10.47;;;;;;;17.87;46.03;101003.97;5072965;28;20028;-75
2022/09/30 06:18:28;;;;;;;14.73;10.23;;;;;;;17.73;46.50;101005.34;5073870;28;20087;-75
2022/09/30 06:21:02;;;;;;;16.83;10.27;;;;;;;17.90;46.10;101009.13;5083152;28;20110;-75
2022/09/30 06:23:29;;;;;;;15.13;10.90;;;;;;;17.85;46.46;101011.09;5092785;28;20775;-75
2022/09/30 06:25:55;;;;;;;14.10;9.80;;;;;;;17.92;46.07;101007.34;5096054;28;20040;-76
2022/09/30 06:28:21;;;;;;;18.83;11.27;;;;;;;17.84;46.52;101009.38;5093595;28;20539;-75
2022/09/30 06:30:47;;;;;;;19.20;12.80;;;;;;;17.59;47.46;101010.28;5089722;28;20534;-75
2022/09/30 06:33:13;;;;;;;18.80;12.20;;;;;;;17.66;47.50;101011.78;5093442;28;20146;-76
2022/09/30 06:35:41;;;;;;;24.67;14.30;;;;;;;17.59;48.10;101013.78;5092500;28;20032;-76
2022/09/30 06:38:07;;;;;;;21.10;13.90;;;;;;;17.65;48.15;101017.97;5091103;28;20028;-76
2022/09/30 06:40:32;;;;;;;25.57;15.60;;;;;;;17.87;47.64;101025.13;5092689;28;20016;-76
2022/09/30 06:42:59;;;;;;;25.73;15.37;;;;;;;18.30;46.22;101027.00;5091122;28;20506;-76
2022/09/30 06:45:25;;;;;;;25.30;15.37;;;;;;;18.42;46.48;101028.31;5092996;28;20036;-76
2022/09/30 06:47:50;;;;;;;21.10;13.77;;;;;;;18.29;46.74;101027.06;5091537;28;20403;-75
2022/09/30 06:50:17;;;;;;;26.47;16.87;;;;;;;18.32;46.43;101026.94;5090753;28;20044;-76
2022/09/30 06:52:43;;;;;;;25.30;16.00;;;;;;;18.66;46.32;101025.59;5089025;28;20043;-76
2022/09/30 06:55:08;;;;;;;27.40;17.07;;;;;;;18.66;46.47;101020.31;5088726;28;20028;-75
2022/09/30 06:57:34;;;;;;;31.23;18.40;;;;;;;18.77;46.78;101023.38;5079451;28;20415;-76
2022/09/30 07:00:00;;;;;;;28.23;18.47;;;;;;;18.58;47.61;101017.97;5088833;28;20040;-75
2022/09/30 07:02:28;;;;;;;28.20;18.80;;;;;;;18.23;48.35;101017.59;5088882;28;20031;-75
2022/09/30 07:04:53;;;;;;;30.40;19.37;;;;;;;18.39;48.54;101012.53;5089937;28;20034;-75
2022/09/30 07:07:20;;;;;;;32.77;21.37;;;;;;;18.21;49.60;101014.13;5087385;28;20019;-75
2022/09/30 07:09:46;;;;;;;31.50;20.67;;;;;;;18.78;47.79;101009.22;5094384;28;20088;-75
2022/09/30 07:12:11;;;;;;;36.07;21.60;;;;;;;18.70;48.70;101016.63;5085974;28;20107;-75
2022/09/30 07:14:37;;;;;;;33.83;22.30;;;;;;;18.69;49.12;101024.63;5090484;28;20123;-76
2022/09/30 07:17:04;;;;;;;38.73;24.07;;;;;;;19.37;48.12;101021.78;5086943;28;20036;-76
2022/09/30 07:19:30;;;;;;;35.50;22.90;;;;;;;19.33;49.18;101010.47;5092154;28;20020;-75
2022/09/30 07:22:26;;;;;;;31.63;22.27;;;;;;;19.17;48.89;101020.00;5084571;28;20032;-76
2022/09/30 07:24:42;;;;;;;36.57;23.53;;;;;;;19.35;50.04;101008.59;5083680;28;20052;-75
2022/09/30 07:27:07;;;;;;;34.10;22.30;;;;;;;19.77;48.94;101004.97;5092312;28;20055;-76
2022/09/30 07:29:32;;;;;;;35.03;22.07;;;;;;;20.33;47.28;101008.56;5089489;28;20020;-76
2022/09/30 07:31:58;;;;;;;33.03;22.60;;;;;;;20.20;48.11;100998.63;5092091;28;20108;-76
2022/09/30 07:34:23;;;;;;;31.90;21.33;;;;;;;21.23;47.20;100997.97;5091747;28;20376;-76
2022/09/30 07:36:48;;;;;;;25.53;19.33;;;;;;;22.28;44.47;100994.97;5091649;28;20031;-76
2022/09/30 07:39:14;;;;;;;22.63;16.80;;;;;;;21.17;45.61;100994.69;5088199;28;20039;-76
2022/09/30 07:41:39;;;;;;;19.88;14.43;;;;;;;21.48;45.81;101002.84;5091491;28;20029;-75
2022/09/30 07:44:08;;;;;;;20.05;14.55;;;;;;;21.91;43.70;100997.88;5092726;28;20031;-75
2022/09/30 07:46:37;;;;;;;19.65;13.00;;;;;;;21.58;45.55;100998.75;5091771;28;20557;-76
2022/09/30 07:49:05;;;;;;;17.33;13.00;;;;;;;20.85;46.97;101001.63;5094285;28;20048;-75
2022/09/30 07:51:34;;;;;;;20.75;13.82;;;;;;;20.43;48.60;101001.00;5091530;28;20032;-76
2022/09/30 07:54:11;;;;;;;19.55;13.43;;;;;;;20.69;47.68;100998.91;5092025;28;20520;-75
2022/09/30 07:56:37;;;;;;;19.50;13.05;;;;;;;20.30;49.06;100998.06;5092701;28;20032;-76
2022/09/30 07:59:03;;;;;;;17.33;12.95;;;;;;;20.41;48.51;101002.03;5088950;28;20652;-76
2022/09/30 08:01:30;;;;;;;19.38;13.98;;;;;;;20.24;49.60;100993.06;5090546;28;20397;-76
2022/09/30 08:03:57;;;;;;;17.33;12.73;;;;;;;20.68;49.09;100999.84;5091018;28;20035;-75
2022/09/30 08:06:24;;;;;;;18.33;12.55;;;;;;;19.81;51.27;101001.25;5087866;28;20028;-75
2022/09/30 08:08:52;;;;;;;14.50;11.85;;;;;;;19.48;50.76;100999.19;5090877;28;20464;-76
2022/09/30 08:11:17;;;;;;;16.23;11.20;;;;;;;20.12;50.36;100999.81;5076176;28;20031;-75
2022/09/30 08:13:43;;;;;;;27.50;12.65;;;;;;;20.00;51.35;101005.69;5090015;28;20035;-75
2022/09/30 08:16:08;;;;;;;14.95;9.98;;;;;;;19.64;51.70;101009.09;5090496;28;20464;-75
2022/09/30 08:18:34;;;;;;;11.93;9.40;;;;;;;20.30;50.36;101007.84;5087135;28;20036;-75
2022/09/30 08:21:05;;;;;;;11.30;9.20;;;;;;;20.69;49.35;101009.53;5089887;28;20034;-76
2022/09/30 08:23:31;;;;;;;10.93;9.02;;;;;;;20.89;48.02;101005.00;5090687;28;20031;-76
2022/09/30 08:26:05;;;;;;;16.13;9.30;;;;;;;20.89;48.36;101011.16;5089824;28;20039;-76
2022/09/30 08:28:31;;;;;;;10.80;8.00;;;;;;;21.32;47.20;101008.09;5087851;28;20023;-76
2022/09/30 08:31:23;;;;;;;10.32;7.97;;;;;;;21.30;48.28;101004.66;5091594;28;20036;-76
2022/09/30 08:33:49;;;;;;;9.80;7.38;;;;;;;20.66;49.30;100999.00;5068479;28;20048;-76
2022/09/30 08:36:18;;;;;;;11.43;7.40;;;;;;;21.84;46.71;100997.38;5071140;28;20024;-76
2022/09/30 08:38:44;;;;;;;7.72;6.15;;;;;;;21.19;46.72;101008.72;5080424;28;20035;-76
2022/09/30 08:41:25;;;;;;;7.78;6.13;;;;;;;21.99;46.44;101002.78;5091232;28;20028;-76
2022/09/30 08:44:23;;;;;;;11.10;6.20;;;;;;;21.41;47.04;101006.78;5092548;28;20035;-76
2022/09/30 08:47:09;;;;;;;12.13;6.93;;;;;;;21.13;48.03;101014.38;5085502;28;20040;-76
2022/09/30 08:49:47;;;;;;;7.85;5.63;;;;;;;22.08;45.69;101007.59;5091873;28;20113;-76
2022/09/30 08:52:23;;;;;;;11.32;6.57;;;;;;;21.85;46.16;101008.88;5096577;28;20032;-76
2022/09/30 08:54:52;;;;;;;8.90;5.55;;;;;;;21.06;47.96;101007.66;5099947;28;20035;-76
2022/09/30 08:57:19;;;;;;;7.13;5.22;;;;;;;21.62;47.22;101008.28;5089969;28;20032;-76
2022/09/30 08:59:51;;;;;;;9.57;5.63;;;;;;;22.18;45.57;101008.78;5089689;28;20032;-76
2022/09/30 09:02:37;;;;;;;8.43;6.32;;;;;;;22.34;45.77;101007.97;5089088;28;20023;-76
2022/09/30 09:05:05;;;;;;;6.05;5.45;;;;;;;21.60;46.70;101012.84;5091276;28;20570;-76
2022/09/30 09:07:40;;;;;;;9.43;5.88;;;;;;;22.21;46.15;101007.75;5091495;28;20028;-76
2022/09/30 09:10:35;;;;;;;6.88;5.35;;;;;;;21.52;46.58;101007.94;5089728;28;20035;-76
2022/09/30 09:13:25;;;;;;;8.50;5.45;;;;;;;22.00;45.68;101015.16;5090085;28;20455;-76
2022/09/30 09:16:05;;;;;;;6.20;5.60;;;;;;;21.81;45.75;101005.50;5091022;28;20107;-76
2022/09/30 09:18:52;;;;;;;6.35;4.78;;;;;;;21.17;46.17;101009.75;5089008;28;20471;-77
2022/09/30 09:21:30;;;;;;;5.63;3.83;;;;;;;21.00;47.22;101013.28;5091653;28;20024;-76
2022/09/30 09:24:00;;;;;;;6.00;3.65;;;;;;;20.90;46.91;101009.38;5080244;28;20024;-76
2022/09/30 09:26:29;;;;;;;5.07;4.20;;;;;;;22.75;43.86;101010.06;5070046;28;20040;-76
2022/09/30 09:29:13;;;;;;;4.35;3.95;;;;;;;22.64;43.46;101009.81;5104446;28;20035;-76
2022/09/30 09:31:39;;;;;;;7.28;4.30;;;;;;;22.47;43.51;101014.28;5088654;28;20044;-76
2022/09/30 09:34:12;;;;;;;5.00;3.67;;;;;;;22.58;43.45;101012.84;5089854;28;20012;-76
2022/09/30 09:36:51;;;;;;;6.68;3.72;;;;;;;23.00;43.10;101011.28;5093600;28;20092;-76
2022/09/30 09:39:39;;;;;;;5.57;3.08;;;;;;;22.97;43.71;101006.09;5091291;28;20020;-76
2022/09/30 09:42:26;;;;;;;2.97;2.60;;;;;;;21.52;44.51;101013.25;5105574;27;20483;-75
2022/09/30 09:45:07;;;;;;;4.53;3.05;;;;;;;22.12;43.54;101019.78;5102598;27;20035;-76
2022/09/30 09:47:33;;;;;;;3.75;2.65;;;;;;;23.16;42.15;101017.44;5088782;28;20070;-75
2022/09/30 09:50:02;;;;;;;5.03;2.55;;;;;;;23.47;41.38;101004.88;5091650;28;20079;-76
2022/09/30 09:53:05;;;;;;;5.18;3.05;;;;;;;21.69;43.90;101022.13;5093655;28;20020;-75
2022/09/30 09:55:30;;;;;;;4.22;2.85;;;;;;;22.77;42.51;101015.28;5092156;28;20115;-76
2022/09/30 09:58:09;;;;;;;3.95;2.03;;;;;;;22.50;41.20;101018.59;5119253;27;20119;-75
2022/09/30 10:03:20;;;;;;;3.72;2.55;;;;;;;24.12;39.71;101006.19;5093115;28;20110;-75
2022/09/30 10:06:02;;;;;;;2.83;2.35;;;;;;;23.99;39.62;101006.13;5091065;28;20024;-75
2022/09/30 10:08:30;;;;;;;4.47;1.60;;;;;;;23.08;40.74;101009.00;5093629;28;20122;-75
2022/09/30 10:11:00;;;;;;;2.28;1.63;;;;;;;23.50;40.30;101004.69;5091296;28;20035;-75
2022/09/30 10:13:46;;;;;;;2.40;1.40;;;;;;;23.35;38.54;101001.16;5102826;28;20016;-75
2022/09/30 10:16:34;;;;;;;2.78;1.30;;;;;;;23.58;38.92;101006.03;5092166;28;20040;-75
2022/09/30 10:19:01;;;;;;;3.17;1.20;;;;;;;21.86;40.02;101014.09;5073626;28;20373;-74
2022/09/30 10:21:28;;;;;;;5.28;1.10;;;;;;;23.02;38.62;101004.03;5085093;28;20469;-75
2022/09/30 10:23:53;;;;;;;2.50;1.38;;;;;;;23.82;37.98;101004.50;5085532;28;20081;-75
2022/09/30 10:26:23;;;;;;;1.02;0.93;;;;;;;23.46;37.59;101008.50;5099374;28;20102;-74
2022/09/30 10:28:50;;;;;;;5.55;0.93;;;;;;;23.76;37.82;101010.22;5113326;28;20106;-75
2022/09/30 10:31:43;;;;;;;1.17;1.00;;;;;;;24.09;38.66;101009.06;5092720;28;20388;-75
2022/09/30 10:34:32;;;;;;;3.55;1.17;;;;;;;23.73;38.75;101005.09;5072836;28;20043;-74
2022/09/30 10:37:07;;;;;;;2.83;1.50;;;;;;;22.72;41.41;101010.22;5089003;28;20031;-74
2022/09/30 10:39:36;;;;;;;1.42;1.33;;;;;;;23.31;39.67;100999.63;5091164;28;20106;-74
2022/09/30 10:42:24;;;;;;;4.15;1.48;;;;;;;23.35;40.15;101002.97;5112144;27;20081;-74
2022/09/30 10:45:02;;;;;;;2.55;1.50;;;;;;;24.15;39.17;101006.00;5093968;28;20384;-75
2022/09/30 10:47:29;;;;;;;4.97;1.60;;;;;;;24.13;40.24;101013.25;5091791;28;20093;-75
2022/09/30 10:50:03;;;;;;;3.28;1.80;;;;;;;25.06;38.20;101001.81;5090044;28;20090;-74
2022/09/30 10:52:33;;;;;;;1.38;1.27;;;;;;;24.98;38.96;100993.47;5090954;28;20028;-75
2022/09/30 10:55:04;;;;;;;2.88;1.52;;;;;;;24.22;39.79;100999.31;5091067;28;20027;-74
2022/09/30 10:57:37;;;;;;;4.40;1.42;;;;;;;24.92;38.32;100988.53;5089286;28;20024;-75
2022/09/30 11:00:06;;;;;;;1.52;1.10;;;;;;;24.46;37.42;100997.81;5090621;28;20510;-74
2022/09/30 11:02:43;;;;;;;1.52;1.30;;;;;;;23.87;39.31;100990.84;5087338;28;20024;-75
2022/09/30 11:05:32;;;;;;;2.47;1.35;;;;;;;24.42;37.11;100994.47;5077129;28;20500;-74
2022/09/30 11:08:20;;;;;;;5.00;1.70;;;;;;;24.89;37.37;100990.47;5089168;28;20430;-74
2022/09/30 11:10:53;;;;;;;2.53;1.40;;;;;;;23.37;39.11;100993.09;5086232;28;20024;-75
2022/09/30 11:13:45;;;;;;;1.63;1.45;;;;;;;24.24;37.43;100985.84;5071362;28;20060;-75
2022/09/30 11:16:32;;;;;;;2.33;1.55;;;;;;;23.98;37.45;100992.88;5087043;28;20067;-74
2022/09/30 11:19:25;;;;;;;4.30;1.75;;;;;;;23.55;38.25;100985.75;5087758;28;20037;-74
2022/09/30 11:21:53;;;;;;;3.47;2.20;;;;;;;24.29;37.55;100986.41;5087169;28;20048;-73
2022/09/30 11:24:24;;;;;;;2.13;1.60;;;;;;;24.10;37.61;100981.41;5091433;28;20431;-73
2022/09/30 11:27:05;;;;;;;9.63;2.20;;;;;;;24.58;37.57;100986.31;5091145;28;20021;-74
2022/09/30 11:29:50;;;;;;;5.43;2.40;;;;;;;25.31;37.17;100989.44;5089553;28;20042;-74
2022/09/30 11:32:18;;;;;;;6.85;3.17;;;;;;;24.92;36.60;100985.84;5089710;28;20467;-74
2022/09/30 11:34:58;;;;;;;3.63;3.10;;;;;;;23.56;38.42;100982.09;5089896;28;20506;-74
2022/09/30 11:37:47;;;;;;;5.47;3.53;;;;;;;23.44;37.86;100978.41;5089367;28;20484;-74
2022/09/30 11:40:22;;;;;;;5.55;3.90;;;;;;;22.14;41.15;100980.63;5090249;28;20073;-73
2022/09/30 11:43:02;;;;;;;7.82;3.55;;;;;;;24.53;37.36;100973.22;5090327;28;20446;-75
2022/09/30 11:45:30;;;;;;;5.47;4.10;;;;;;;22.25;40.74;100976.50;5091310;28;20035;-74